createdAt,value
2018-08-04T00:01:49.510Z,6.30
2018-08-04T00:04:21.831Z,6.50
2018-08-04T00:06:54.869Z,5.90
2018-08-04T00:09:27.082Z,6.30
2018-08-04T00:14:31.012Z,6.40
2018-08-04T00:17:03.683Z,6.70
2018-08-04T00:19:36.373Z,6.70
2018-08-04T00:22:08.712Z,6.90
2018-08-04T00:24:41.238Z,7.50
2018-08-04T00:27:13.996Z,8.50
2018-08-04T00:29:46.674Z,9.00
2018-08-04T00:32:18.988Z,9.40
2018-08-04T00:34:51.451Z,9.30
2018-08-04T00:37:24.256Z,8.70
2018-08-04T00:39:56.853Z,8.30
2018-08-04T00:42:29.755Z,8.50
2018-08-04T00:45:03.015Z,8.20
2018-08-04T00:47:35.947Z,8.90
2018-08-04T00:50:10.248Z,8.60
2018-08-04T00:55:14.317Z,9.10
2018-08-04T00:57:46.654Z,9.10
2018-08-04T01:00:19.219Z,8.40
2018-08-04T01:02:51.788Z,9.10
2018-08-04T01:05:24.199Z,9.00
2018-08-04T01:07:56.455Z,8.40
2018-08-04T01:10:29.191Z,9.40
2018-08-04T01:13:01.905Z,9.10
2018-08-04T01:15:34.457Z,8.70
2018-08-04T01:18:07.280Z,8.80
2018-08-04T01:20:40.081Z,8.40
2018-08-04T01:23:12.177Z,8.60
2018-08-04T01:25:44.612Z,8.90
2018-08-04T01:28:17.141Z,8.60
2018-08-04T01:30:49.566Z,8.70
2018-08-04T01:33:22.217Z,8.10
2018-08-04T01:35:56.777Z,9.50
2018-08-04T01:38:29.460Z,9.00
2018-08-04T01:41:02.016Z,8.50
2018-08-04T01:43:34.436Z,9.40
2018-08-04T01:46:07.034Z,9.10
2018-08-04T01:48:40.213Z,9.20
2018-08-04T01:51:12.851Z,8.90
2018-08-04T01:53:45.084Z,9.20
2018-08-04T01:56:17.238Z,9.50
2018-08-04T01:58:49.734Z,9.00
2018-08-04T02:01:22.409Z,9.60
2018-08-04T02:03:54.966Z,10.50
2018-08-04T02:06:27.530Z,10.40
2018-08-04T02:09:00.121Z,10.20
2018-08-04T02:11:32.534Z,10.70
2018-08-04T02:14:05.068Z,10.60
2018-08-04T02:16:37.617Z,10.50
2018-08-04T02:19:09.938Z,11.50
2018-08-04T02:21:42.497Z,10.80
2018-08-04T02:24:15.072Z,10.90
2018-08-04T02:26:47.428Z,11.60
2018-08-04T02:29:19.603Z,11.20
2018-08-04T02:31:51.922Z,10.70
2018-08-04T02:34:24.357Z,11.00
2018-08-04T02:36:56.556Z,10.40
2018-08-04T02:39:28.946Z,10.10
2018-08-04T02:42:01.767Z,10.50
2018-08-04T02:44:34.302Z,10.40
2018-08-04T02:47:06.922Z,10.90
2018-08-04T02:49:39.289Z,10.60
2018-08-04T02:52:11.948Z,10.40
2018-08-04T02:54:44.254Z,10.60
2018-08-04T02:57:16.622Z,10.70
2018-08-04T02:59:48.500Z,10.90
2018-08-04T03:02:20.801Z,10.90
2018-08-04T03:04:53.084Z,11.40
2018-08-04T03:07:25.570Z,11.60
2018-08-04T03:09:58.171Z,12.60
2018-08-04T03:12:30.385Z,12.70
2018-08-04T03:15:02.484Z,12.80
2018-08-04T03:17:35.425Z,13.30
2018-08-04T03:20:08.780Z,13.10
2018-08-04T03:22:40.768Z,13.80
2018-08-04T03:25:12.958Z,14.30
2018-08-04T03:27:45.394Z,14.50
2018-08-04T03:30:17.948Z,14.60
2018-08-04T03:32:51.734Z,14.90
2018-08-04T03:35:24.132Z,15.40
2018-08-04T03:37:57.140Z,15.70
2018-08-04T03:40:29.661Z,15.80
2018-08-04T03:43:02.250Z,15.80
2018-08-04T03:45:34.774Z,16.40
2018-08-04T03:48:07.112Z,17.00
2018-08-04T03:50:39.948Z,17.50
2018-08-04T03:53:12.650Z,17.80
2018-08-04T03:55:45.273Z,18.10
2018-08-04T03:58:18.018Z,18.30
2018-08-04T04:00:50.547Z,19.00
2018-08-04T04:03:22.696Z,19.30
2018-08-04T04:05:54.877Z,19.60
2018-08-04T04:08:27.442Z,20.10
2018-08-04T04:10:59.919Z,20.60
2018-08-04T04:13:32.267Z,21.00
2018-08-04T04:16:05.009Z,21.10
2018-08-04T04:18:37.591Z,21.10
2018-08-04T04:21:10.262Z,22.00
2018-08-04T04:23:43.191Z,22.10
2018-08-04T04:26:15.541Z,22.70
2018-08-04T04:28:48.480Z,22.80
2018-08-04T04:31:20.990Z,23.60
2018-08-04T04:33:53.823Z,24.20
2018-08-04T04:36:26.390Z,24.50
2018-08-04T04:38:58.644Z,25.10
2018-08-04T04:41:31.057Z,25.80
2018-08-04T04:44:03.845Z,26.20
2018-08-04T04:46:41.706Z,26.30
2018-08-04T04:49:14.789Z,26.60
2018-08-04T04:51:47.774Z,27.00
2018-08-04T04:54:19.937Z,27.20
2018-08-04T04:56:52.120Z,27.50
2018-08-04T04:59:25.455Z,27.50
2018-08-04T05:01:58.111Z,27.70
2018-08-04T05:04:30.250Z,27.90
2018-08-04T05:07:02.866Z,28.20
2018-08-04T05:09:35.178Z,28.40
2018-08-04T05:12:07.344Z,29.00
2018-08-04T05:14:39.540Z,28.90
2018-08-04T05:17:12.490Z,29.30
2018-08-04T05:19:44.693Z,29.60
2018-08-04T05:22:17.342Z,29.80
2018-08-04T05:24:49.753Z,30.00
2018-08-04T05:27:22.114Z,30.10
2018-08-04T05:29:54.496Z,30.10
2018-08-04T05:32:26.926Z,30.00
2018-08-04T05:34:59.520Z,31.10
2018-08-04T05:37:32.076Z,31.80
2018-08-04T05:40:04.781Z,32.00
2018-08-04T05:42:37.172Z,32.60
2018-08-04T05:45:10.339Z,32.90
2018-08-04T05:47:43.151Z,33.10
2018-08-04T05:50:15.677Z,33.20
2018-08-04T05:52:48.350Z,33.40
2018-08-04T05:55:21.016Z,33.80
2018-08-04T05:57:53.637Z,34.40
2018-08-04T06:00:25.929Z,34.90
2018-08-04T06:02:58.784Z,34.80
2018-08-04T06:05:31.513Z,35.30
2018-08-04T06:08:03.836Z,35.40
2018-08-04T06:10:35.982Z,35.90
2018-08-04T06:13:08.409Z,35.70
2018-08-04T06:15:40.734Z,35.80
2018-08-04T06:18:13.416Z,36.20
2018-08-04T06:23:16.570Z,36.80
2018-08-04T06:25:48.993Z,37.10
2018-08-04T06:28:21.394Z,37.80
2018-08-04T06:33:25.605Z,38.10
2018-08-04T06:35:58.000Z,38.30
2018-08-04T06:38:30.337Z,38.40
2018-08-04T06:41:02.661Z,39.60
2018-08-04T06:43:34.509Z,39.50
2018-08-04T06:46:06.497Z,39.50
2018-08-04T06:48:39.258Z,39.70
2018-08-04T06:51:19.317Z,39.90
2018-08-04T06:53:52.502Z,40.30
2018-08-04T06:56:24.916Z,40.40
2018-08-04T06:58:57.159Z,40.80
2018-08-04T07:01:32.429Z,40.70
2018-08-04T07:04:09.304Z,41.00
2018-08-04T07:06:41.233Z,41.20
2018-08-04T07:09:13.134Z,41.70
2018-08-04T07:14:16.716Z,41.70
2018-08-04T07:16:49.114Z,41.50
2018-08-04T07:19:22.156Z,42.10
2018-08-04T07:21:54.501Z,42.00
2018-08-04T07:24:27.147Z,43.00
2018-08-04T07:27:00.058Z,43.10
2018-08-04T07:29:32.347Z,44.80
2018-08-04T07:32:04.805Z,44.10
2018-08-04T07:34:37.507Z,44.00
2018-08-04T07:37:10.031Z,44.50
2018-08-04T07:39:42.733Z,44.80
2018-08-04T07:42:14.859Z,44.70
2018-08-04T07:44:47.246Z,45.00
2018-08-04T07:47:19.615Z,45.70
2018-08-04T07:49:52.314Z,44.90
2018-08-04T07:52:24.502Z,45.30
2018-08-04T07:54:57.285Z,45.50
2018-08-04T07:57:29.681Z,46.50
2018-08-04T08:00:02.044Z,46.70
2018-08-04T08:02:34.132Z,46.70
2018-08-04T08:05:06.845Z,46.80
2018-08-04T08:07:39.230Z,46.50
2018-08-04T08:10:11.910Z,46.80
2018-08-04T08:12:44.026Z,46.90
2018-08-04T08:15:16.275Z,47.20
2018-08-04T08:17:48.546Z,47.40
2018-08-04T08:20:21.180Z,47.40
2018-08-04T08:22:53.395Z,47.80
2018-08-04T08:25:25.790Z,47.90
2018-08-04T08:27:58.317Z,47.70
2018-08-04T08:30:30.590Z,48.50
2018-08-04T08:33:03.227Z,47.90
2018-08-04T08:38:06.915Z,48.30
2018-08-04T08:40:39.086Z,48.70
2018-08-04T08:43:11.975Z,48.70
2018-08-04T08:45:44.375Z,49.00
2018-08-04T08:48:16.524Z,49.80
2018-08-04T08:50:49.348Z,49.80
2018-08-04T08:53:21.907Z,49.80
2018-08-04T08:55:54.817Z,49.50
2018-08-04T08:58:26.981Z,49.60
2018-08-04T09:01:00.006Z,50.20
2018-08-04T09:03:32.285Z,49.80
2018-08-04T09:06:05.671Z,50.70
2018-08-04T09:08:38.239Z,50.30
2018-08-04T09:11:10.476Z,50.30
2018-08-04T09:13:42.972Z,50.60
2018-08-04T09:16:15.446Z,51.20
2018-08-04T09:18:47.696Z,51.20
2018-08-04T09:21:20.460Z,51.80
2018-08-04T09:23:52.701Z,52.00
2018-08-04T09:26:24.902Z,52.70
2018-08-04T09:28:57.255Z,52.60
2018-08-04T09:31:29.408Z,52.80
2018-08-04T09:34:01.788Z,52.90
2018-08-04T09:36:34.404Z,53.10
2018-08-04T09:39:09.332Z,53.70
2018-08-04T09:41:42.185Z,53.80
2018-08-04T09:44:14.348Z,54.10
2018-08-04T09:46:46.868Z,54.10
2018-08-04T09:49:19.172Z,55.20
2018-08-04T09:51:51.575Z,55.50
2018-08-04T09:54:24.133Z,55.60
2018-08-04T09:56:56.636Z,56.50
2018-08-04T09:59:29.336Z,57.10
2018-08-04T10:02:06.216Z,56.70
2018-08-04T10:04:38.338Z,56.50
2018-08-04T10:07:11.447Z,57.20
2018-08-04T10:09:43.822Z,57.20
2018-08-04T10:12:16.108Z,57.50
2018-08-04T10:14:48.424Z,57.40
2018-08-04T10:17:20.779Z,57.20
2018-08-04T10:19:53.581Z,56.80
2018-08-04T10:22:25.929Z,56.60
2018-08-04T10:24:58.335Z,56.50
2018-08-04T10:27:30.893Z,56.90
2018-08-04T10:30:03.220Z,56.60
2018-08-04T10:32:35.797Z,56.60
2018-08-04T10:35:08.618Z,56.70
2018-08-04T10:37:41.038Z,57.60
2018-08-04T10:40:13.730Z,57.20
2018-08-04T10:42:46.334Z,57.10
2018-08-04T10:45:18.808Z,57.10
2018-08-04T10:47:51.153Z,57.10
2018-08-04T10:50:23.749Z,57.00
2018-08-04T10:52:56.442Z,58.00
2018-08-04T10:57:59.670Z,58.50
2018-08-04T11:00:32.102Z,58.40
2018-08-04T11:03:04.472Z,58.60
2018-08-04T11:05:36.716Z,59.10
2018-08-04T11:08:09.337Z,58.90
2018-08-04T11:10:41.915Z,60.30
2018-08-04T11:13:14.303Z,60.10
2018-08-04T11:15:46.701Z,60.20
2018-08-04T11:18:19.286Z,60.70
2018-08-04T11:20:51.448Z,60.90
2018-08-04T11:23:23.606Z,60.70
2018-08-04T11:25:56.148Z,60.70
2018-08-04T11:28:28.937Z,61.00
2018-08-04T11:31:01.200Z,61.00
2018-08-04T11:33:33.677Z,61.30
2018-08-04T11:36:06.108Z,61.80
2018-08-04T11:38:38.641Z,61.50
2018-08-04T11:41:11.389Z,61.30
2018-08-04T11:43:43.886Z,61.90
2018-08-04T11:48:47.319Z,61.80
2018-08-04T11:51:19.690Z,61.90
2018-08-04T11:53:52.465Z,61.80
2018-08-04T11:56:25.013Z,61.80
2018-08-04T12:01:28.801Z,61.80
2018-08-04T12:04:01.140Z,60.90
2018-08-04T12:06:33.375Z,61.10
2018-08-04T12:14:09.218Z,61.70
2018-08-04T12:16:41.579Z,61.60
2018-08-04T12:19:13.729Z,62.00
2018-08-04T12:21:46.073Z,62.10
2018-08-04T12:24:18.480Z,62.00
2018-08-04T12:26:50.527Z,62.30
2018-08-04T12:29:22.708Z,62.20
2018-08-04T12:31:55.043Z,61.90
2018-08-04T12:36:58.457Z,62.00
2018-08-04T12:42:01.977Z,61.90
2018-08-04T12:44:34.585Z,62.00
2018-08-04T12:47:07.159Z,61.70
2018-08-04T12:49:39.754Z,62.00
2018-08-04T12:52:12.312Z,62.40
2018-08-04T12:54:44.900Z,63.20
2018-08-04T12:57:17.248Z,63.30
2018-08-04T12:59:49.849Z,63.80
2018-08-04T13:02:22.362Z,64.10
2018-08-04T13:04:54.655Z,63.90
2018-08-04T13:07:26.719Z,64.20
2018-08-04T13:09:59.295Z,63.90
2018-08-04T13:15:02.856Z,63.70
2018-08-04T13:17:35.228Z,63.70
2018-08-04T13:20:07.770Z,63.60
2018-08-04T13:22:40.133Z,63.80
2018-08-04T13:25:12.316Z,63.80
2018-08-04T13:27:44.606Z,63.90
2018-08-04T13:30:16.999Z,63.90
2018-08-04T13:32:49.051Z,64.10
2018-08-04T13:35:21.593Z,64.50
2018-08-04T13:37:53.631Z,65.00
2018-08-04T13:40:25.984Z,65.20
2018-08-04T13:42:58.348Z,65.30
2018-08-04T13:45:31.134Z,65.40
2018-08-04T13:48:03.572Z,65.60
2018-08-04T13:50:36.110Z,65.80
2018-08-04T13:55:39.357Z,66.20
2018-08-04T13:58:12.513Z,66.30
2018-08-04T14:00:44.587Z,66.60
2018-08-04T14:03:17.099Z,66.50
2018-08-04T14:05:49.593Z,66.30
2018-08-04T14:08:22.038Z,66.00
2018-08-04T14:10:54.468Z,65.80
2018-08-04T14:15:58.383Z,65.40
2018-08-04T14:18:30.928Z,65.20
2018-08-04T14:21:02.995Z,65.10
2018-08-04T14:23:35.264Z,64.90
2018-08-04T14:26:07.526Z,64.90
2018-08-04T14:28:40.012Z,64.60
2018-08-04T14:31:12.025Z,64.10
2018-08-04T14:33:44.372Z,63.40
2018-08-04T14:38:47.366Z,60.90
2018-08-04T14:41:19.525Z,59.00
2018-08-04T14:43:52.426Z,57.20
2018-08-04T14:46:24.503Z,57.10
2018-08-04T14:48:56.837Z,56.20
2018-08-04T14:51:29.022Z,56.40
2018-08-04T14:54:01.328Z,56.60
2018-08-04T14:56:33.776Z,52.00
2018-08-04T14:59:06.257Z,50.90
2018-08-04T15:01:38.645Z,49.80
2018-08-04T15:04:11.180Z,49.40
2018-08-04T15:06:43.395Z,48.40
2018-08-04T15:09:15.603Z,47.00
2018-08-04T15:11:47.793Z,45.30
2018-08-04T15:16:51.311Z,44.50
2018-08-04T15:19:23.570Z,43.90
2018-08-04T15:21:55.970Z,40.50
2018-08-04T15:24:28.322Z,41.10
2018-08-04T15:29:32.097Z,40.20
2018-08-04T15:32:04.538Z,40.50
2018-08-04T15:34:36.711Z,40.90
2018-08-04T15:37:09.031Z,42.00
2018-08-04T15:39:41.026Z,39.80
2018-08-04T15:42:13.410Z,39.10
2018-08-04T15:44:45.996Z,37.80
2018-08-04T15:47:18.226Z,31.50
2018-08-04T15:49:50.804Z,28.10
2018-08-04T15:52:23.417Z,28.10
2018-08-04T15:54:56.040Z,24.10
2018-08-04T15:57:28.519Z,22.60
2018-08-04T16:00:00.645Z,22.50
2018-08-04T16:02:33.099Z,18.80
2018-08-04T16:05:05.728Z,17.80
2018-08-04T16:07:38.358Z,17.60
2018-08-04T16:10:10.864Z,18.50
2018-08-04T16:12:43.172Z,18.70
2018-08-04T16:15:15.551Z,18.00
2018-08-04T16:17:47.960Z,17.80
2018-08-04T16:20:21.313Z,17.40
2018-08-04T16:22:54.021Z,17.60
2018-08-04T16:25:26.340Z,18.20
2018-08-04T16:27:58.530Z,17.50
2018-08-04T16:30:30.706Z,18.80
2018-08-04T16:33:03.038Z,20.10
2018-08-04T16:35:35.884Z,21.10
2018-08-04T16:38:08.207Z,20.20
2018-08-04T16:40:40.450Z,17.80
2018-08-04T16:43:12.596Z,16.00
2018-08-04T16:45:45.134Z,16.30
2018-08-04T16:48:17.095Z,12.20
2018-08-04T16:50:49.643Z,6.50
2018-08-04T16:53:22.005Z,5.60
2018-08-04T16:55:54.406Z,5.10
2018-08-04T16:58:26.966Z,3.50
2018-08-04T17:00:59.336Z,2.90
2018-08-04T17:03:32.152Z,1.40
2018-08-04T17:06:04.689Z,2.40
2018-08-04T17:08:37.040Z,1.00
2018-08-04T17:11:09.711Z,1.00
2018-08-04T17:13:42.377Z,1.00
2018-08-04T17:16:14.953Z,1.00
2018-08-04T17:18:47.293Z,1.00
2018-08-04T17:21:19.635Z,1.00
2018-08-04T17:23:52.258Z,1.00
2018-08-04T17:26:24.510Z,1.00
2018-08-04T17:28:56.790Z,1.00
2018-08-04T17:31:28.974Z,1.00
2018-08-04T17:34:01.559Z,1.00
2018-08-04T17:36:33.913Z,2.10
2018-08-04T17:39:06.732Z,4.40
2018-08-04T17:41:39.017Z,3.50
2018-08-04T17:44:11.408Z,4.10
2018-08-04T17:46:44.024Z,4.80
2018-08-04T17:49:16.304Z,6.30
2018-08-04T17:51:48.888Z,6.50
2018-08-04T17:54:21.532Z,7.40
2018-08-04T17:56:53.704Z,8.20
2018-08-04T17:59:26.261Z,8.30
2018-08-04T18:01:58.867Z,9.80
2018-08-04T18:04:31.388Z,10.00
2018-08-04T18:07:03.791Z,10.50
2018-08-04T18:09:36.355Z,8.40
2018-08-04T18:12:08.723Z,7.80
2018-08-04T18:14:41.217Z,7.30
2018-08-04T18:17:13.381Z,6.50
2018-08-04T18:19:45.906Z,6.40
2018-08-04T18:22:18.353Z,6.80
2018-08-04T18:24:51.091Z,6.30
2018-08-04T18:27:23.957Z,6.80
2018-08-04T18:29:56.216Z,6.80
2018-08-04T18:32:28.556Z,5.60
2018-08-04T18:35:00.858Z,4.90
2018-08-04T18:37:33.437Z,4.50
2018-08-04T18:40:06.061Z,4.20
2018-08-04T18:42:38.575Z,4.10
2018-08-04T18:45:11.076Z,2.20
2018-08-04T18:47:43.740Z,2.20
2018-08-04T18:50:16.360Z,1.00
2018-08-04T18:52:48.598Z,1.10
2018-08-04T18:55:21.145Z,1.50
2018-08-04T18:57:53.477Z,1.00
2018-08-04T19:00:26.122Z,1.00
2018-08-04T19:02:58.705Z,1.00
2018-08-04T19:05:31.127Z,1.00
2018-08-04T19:08:03.419Z,1.00
2018-08-04T19:10:35.634Z,1.00
2018-08-04T19:13:08.358Z,1.00
2018-08-04T19:15:40.806Z,1.00
2018-08-04T19:18:13.124Z,1.00
2018-08-04T19:23:17.352Z,1.00
2018-08-04T19:25:49.809Z,1.00
2018-08-04T19:28:22.339Z,1.00
2018-08-04T19:30:54.505Z,1.00
2018-08-04T19:35:58.541Z,2.90
2018-08-04T19:38:31.070Z,2.30
2018-08-04T19:41:03.416Z,1.60
2018-08-04T19:43:35.685Z,1.00
2018-08-04T19:46:09.287Z,1.00
2018-08-04T19:48:41.594Z,1.00
2018-08-04T19:51:14.170Z,1.00
2018-08-04T19:53:46.788Z,1.00
2018-08-04T19:56:18.930Z,1.00
2018-08-04T19:58:51.642Z,1.00
2018-08-04T20:01:24.218Z,1.00
2018-08-04T20:03:57.120Z,1.00
2018-08-04T20:06:29.458Z,1.00
2018-08-04T20:09:02.071Z,1.00
2018-08-04T20:11:34.415Z,1.00
2018-08-04T20:14:07.020Z,1.50
2018-08-04T20:16:39.433Z,1.70
2018-08-04T20:19:11.948Z,1.60
2018-08-04T20:21:44.057Z,1.70
2018-08-04T20:24:16.808Z,2.80
2018-08-04T20:26:49.259Z,3.90
2018-08-04T20:29:21.902Z,4.20
2018-08-04T20:31:54.146Z,4.10
2018-08-04T20:34:26.110Z,4.80
2018-08-04T20:36:58.620Z,5.00
2018-08-04T20:39:30.828Z,4.20
2018-08-04T20:42:03.173Z,4.10
2018-08-04T20:44:35.781Z,4.50
2018-08-04T20:47:08.277Z,5.00
2018-08-04T20:49:40.957Z,4.80
2018-08-04T20:52:13.553Z,4.80
2018-08-04T20:57:17.146Z,5.20
2018-08-04T20:59:49.756Z,4.90
2018-08-04T21:02:22.101Z,4.50
2018-08-04T21:04:55.092Z,3.80
2018-08-04T21:07:27.346Z,4.20
2018-08-04T21:09:59.833Z,3.60
2018-08-04T21:12:32.299Z,4.30
2018-08-04T21:15:04.901Z,4.80
2018-08-04T21:17:37.116Z,3.60
2018-08-04T21:20:09.397Z,3.10
2018-08-04T21:22:41.611Z,4.60
2018-08-04T21:25:14.288Z,5.00
2018-08-04T21:27:46.634Z,5.00
2018-08-04T21:30:19.104Z,4.90
2018-08-04T21:32:51.479Z,5.00
2018-08-04T21:35:23.966Z,3.60
2018-08-04T21:37:57.766Z,3.90
2018-08-04T21:40:30.380Z,3.70
2018-08-04T21:43:02.760Z,3.60
2018-08-04T21:45:35.109Z,3.80
2018-08-04T21:48:07.877Z,3.80
2018-08-04T21:50:40.255Z,3.90
2018-08-04T21:55:44.167Z,4.00
2018-08-04T21:58:16.857Z,2.30
2018-08-04T22:00:54.031Z,3.50
2018-08-04T22:03:26.518Z,2.70
2018-08-04T22:05:59.097Z,1.90
2018-08-04T22:08:40.836Z,2.30
2018-08-04T22:11:13.502Z,3.20
2018-08-04T22:13:46.133Z,2.80
2018-08-04T22:16:18.650Z,2.60
2018-08-04T22:18:51.012Z,2.10
2018-08-04T22:21:23.813Z,1.70
2018-08-04T22:23:56.905Z,1.80
2018-08-04T22:26:29.381Z,1.90
2018-08-04T22:29:01.960Z,1.10
2018-08-04T22:31:34.077Z,1.00
2018-08-04T22:34:05.978Z,1.50
2018-08-04T22:36:38.271Z,1.00
2018-08-04T22:39:10.813Z,1.00
2018-08-04T22:41:43.493Z,1.00
2018-08-04T22:44:16.109Z,1.00
2018-08-04T22:46:48.730Z,1.00
2018-08-04T22:49:21.283Z,1.00
2018-08-04T22:51:55.115Z,1.00
2018-08-04T22:54:28.067Z,1.00
2018-08-04T22:57:00.090Z,1.00
2018-08-04T22:59:32.168Z,1.00
2018-08-04T23:02:04.899Z,1.00
2018-08-04T23:04:37.208Z,1.00
2018-08-04T23:07:09.915Z,1.00
2018-08-04T23:09:42.428Z,1.00
2018-08-04T23:12:14.961Z,1.00
2018-08-04T23:14:46.854Z,1.00
2018-08-04T23:17:18.865Z,1.00
2018-08-04T23:19:50.884Z,1.00
2018-08-04T23:22:23.174Z,1.00
2018-08-04T23:24:55.342Z,1.00
2018-08-04T23:27:28.321Z,1.00
2018-08-04T23:30:01.272Z,1.00
2018-08-04T23:32:33.879Z,1.00
2018-08-04T23:35:06.233Z,1.00
2018-08-04T23:37:38.598Z,1.00
2018-08-04T23:40:10.950Z,1.00
2018-08-04T23:42:43.603Z,1.00
2018-08-04T23:45:16.124Z,1.00
2018-08-04T23:47:48.311Z,1.00
2018-08-04T23:50:20.758Z,1.00
2018-08-04T23:52:53.575Z,1.00
2018-08-04T23:55:26.045Z,1.00
2018-08-04T23:57:58.598Z,1.30
